Home > Products > Valid Products > TAF

000
FTUS43 KARX 272330
TAFLSE
TAF
KLSE 272330Z 2800/2824 16007KT P6SM BKN200
     FM281100 14005KT P6SM VCSH OVC100
     FM281400 14005KT P6SM -SHRA OVC060
     FM281800 12009KT 5SM SHRA BKN020=



000
FTUS43 KARX 272330
TAFRST
TAF
KRST 272330Z 2800/2824 18007KT P6SM BKN150
     FM280900 18008KT P6SM VCSH OVC080
     FM281200 14008KT P6SM -SHRA OVC050
     FM281500 12011KT 5SM SHRA BKN015
     FM281800 10012KT 4SM SHRA BKN006=



000
FTUS43 KARX 272330
TAFLSE
TAF
KLSE 272330Z 2800/2824 16007KT P6SM BKN200
     FM281100 14005KT P6SM VCSH OVC100
     FM281400 14005KT P6SM -SHRA OVC060
     FM281800 12009KT 5SM SHRA BKN020=



000
FTUS43 KARX 272330
TAFRST
TAF
KRST 272330Z 2800/2824 18007KT P6SM BKN150
     FM280900 18008KT P6SM VCSH OVC080
     FM281200 14008KT P6SM -SHRA OVC050
     FM281500 12011KT 5SM SHRA BKN015
     FM281800 10012KT 4SM SHRA BKN006=



000
FTUS43 KARX 272330
TAFLSE
TAF
KLSE 272330Z 2800/2824 16007KT P6SM BKN200
     FM281100 14005KT P6SM VCSH OVC100
     FM281400 14005KT P6SM -SHRA OVC060
     FM281800 12009KT 5SM SHRA BKN020=



000
FTUS43 KARX 272330
TAFRST
TAF
KRST 272330Z 2800/2824 18007KT P6SM BKN150
     FM280900 18008KT P6SM VCSH OVC080
     FM281200 14008KT P6SM -SHRA OVC050
     FM281500 12011KT 5SM SHRA BKN015
     FM281800 10012KT 4SM SHRA BKN006=



000
FTUS43 KARX 272330
TAFLSE
TAF
KLSE 272330Z 2800/2824 16007KT P6SM BKN200
     FM281100 14005KT P6SM VCSH OVC100
     FM281400 14005KT P6SM -SHRA OVC060
     FM281800 12009KT 5SM SHRA BKN020=



000
FTUS43 KARX 272330
TAFRST
TAF
KRST 272330Z 2800/2824 18007KT P6SM BKN150
     FM280900 18008KT P6SM VCSH OVC080
     FM281200 14008KT P6SM -SHRA OVC050
     FM281500 12011KT 5SM SHRA BKN015
     FM281800 10012KT 4SM SHRA BKN006=



000
FTUS43 KARX 271730
TAFRST
TAF
KRST 271730Z 2718/2818 18011KT P6SM SCT070 BKN250
     FM280800 18009KT P6SM VCSH OVC080
     FM281100 13007KT P6SM -SHRA OVC080
     FM281400 12011KT 5SM SHRA BKN015=



000
FTUS43 KARX 271730
TAFLSE
TAF
KLSE 271730Z 2718/2818 16008KT P6SM SCT070 BKN250
     FM281100 14005KT P6SM VCSH OVC100
     FM281400 14007KT P6SM -SHRA OVC100
      TEMPO 2816/2818 5SM SHRA BKN020=



000
FTUS43 KARX 271730
TAFRST
TAF
KRST 271730Z 2718/2818 18011KT P6SM SCT070 BKN250
     FM280800 18009KT P6SM VCSH OVC080
     FM281100 13007KT P6SM -SHRA OVC080
     FM281400 12011KT 5SM SHRA BKN015=



000
FTUS43 KARX 271730
TAFLSE
TAF
KLSE 271730Z 2718/2818 16008KT P6SM SCT070 BKN250
     FM281100 14005KT P6SM VCSH OVC100
     FM281400 14007KT P6SM -SHRA OVC100
      TEMPO 2816/2818 5SM SHRA BKN020=



000
FTUS43 KARX 271730
TAFRST
TAF
KRST 271730Z 2718/2818 18011KT P6SM SCT070 BKN250
     FM280800 18009KT P6SM VCSH OVC080
     FM281100 13007KT P6SM -SHRA OVC080
     FM281400 12011KT 5SM SHRA BKN015=



000
FTUS43 KARX 271730
TAFLSE
TAF
KLSE 271730Z 2718/2818 16008KT P6SM SCT070 BKN250
     FM281100 14005KT P6SM VCSH OVC100
     FM281400 14007KT P6SM -SHRA OVC100
      TEMPO 2816/2818 5SM SHRA BKN020=



000
FTUS43 KARX 271406 AAA
TAFLSE
TAF AMD
KLSE 271406Z 2714/2812 12003KT P6SM BCFG SCT003
      TEMPO 2714/2715 3SM BR BKN003
     FM271500 17007KT P6SM SCT080 BKN250
     FM272100 15006KT P6SM BKN080
     FM281100 13010KT P6SM SHRA OVC040=



000
FTUS43 KARX 271406 AAA
TAFLSE
TAF AMD
KLSE 271406Z 2714/2812 12003KT P6SM BCFG SCT003
      TEMPO 2714/2715 3SM BR BKN003
     FM271500 17007KT P6SM SCT080 BKN250
     FM272100 15006KT P6SM BKN080
     FM281100 13010KT P6SM SHRA OVC040=



000
FTUS43 KARX 271406 AAA
TAFLSE
TAF AMD
KLSE 271406Z 2714/2812 12003KT P6SM BCFG SCT003
      TEMPO 2714/2715 3SM BR BKN003
     FM271500 17007KT P6SM SCT080 BKN250
     FM272100 15006KT P6SM BKN080
     FM281100 13010KT P6SM SHRA OVC040=



000
FTUS43 KARX 271406 AAA
TAFLSE
TAF AMD
KLSE 271406Z 2714/2812 12003KT P6SM BCFG SCT003
      TEMPO 2714/2715 3SM BR BKN003
     FM271500 17007KT P6SM SCT080 BKN250
     FM272100 15006KT P6SM BKN080
     FM281100 13010KT P6SM SHRA OVC040=



000
FTUS43 KARX 271138
TAFLSE
TAF
KLSE 271138Z 2712/2812 12003KT P6SM BCFG SCT003
      TEMPO 2712/2713 1SM BR BKN003
     FM271330 17007KT P6SM SCT080 BKN250
     FM272100 15006KT P6SM BKN080
     FM281100 13010KT P6SM SHRA OVC040=



000
FTUS43 KARX 271138
TAFRST
TAF
KRST 271138Z 2712/2812 14005KT P6SM BKN080
     FM271600 17009KT P6SM BKN080 BKN250
     FM280900 14009KT P6SM SHRA OVC040=



000
FTUS43 KARX 271138
TAFLSE
TAF
KLSE 271138Z 2712/2812 12003KT P6SM BCFG SCT003
      TEMPO 2712/2713 1SM BR BKN003
     FM271330 17007KT P6SM SCT080 BKN250
     FM272100 15006KT P6SM BKN080
     FM281100 13010KT P6SM SHRA OVC040=



000
FTUS43 KARX 271138
TAFRST
TAF
KRST 271138Z 2712/2812 14005KT P6SM BKN080
     FM271600 17009KT P6SM BKN080 BKN250
     FM280900 14009KT P6SM SHRA OVC040=



000
FTUS43 KARX 271138
TAFRST
TAF
KRST 271138Z 2712/2812 14005KT P6SM BKN080
     FM271600 17009KT P6SM BKN080 BKN250
     FM280900 14009KT P6SM SHRA OVC040=



000
FTUS43 KARX 271138
TAFRST
TAF
KRST 271138Z 2712/2812 14005KT P6SM BKN080
     FM271600 17009KT P6SM BKN080 BKN250
     FM280900 14009KT P6SM SHRA OVC040=



000
FTUS43 KARX 271138
TAFLSE
TAF
KLSE 271138Z 2712/2812 12003KT P6SM BCFG SCT003
      TEMPO 2712/2713 1SM BR BKN003
     FM271330 17007KT P6SM SCT080 BKN250
     FM272100 15006KT P6SM BKN080
     FM281100 13010KT P6SM SHRA OVC040=



000
FTUS43 KARX 271138
TAFLSE
TAF
KLSE 271138Z 2712/2812 12003KT P6SM BCFG SCT003
      TEMPO 2712/2713 1SM BR BKN003
     FM271330 17007KT P6SM SCT080 BKN250
     FM272100 15006KT P6SM BKN080
     FM281100 13010KT P6SM SHRA OVC040=



000
FTUS43 KARX 270850 AAA
TAFLSE
TAF AMD
KLSE 270850Z 2709/2806 12003KT P6SM SCT080
     FM270930 12003KT 3SM BR BKN003
      TEMPO 2711/2714 1/4SM FG BKN001
     FM271430 17006KT P6SM SCT010
     FM280100 14005KT P6SM BKN250=



000
FTUS43 KARX 270850 AAA
TAFLSE
TAF AMD
KLSE 270850Z 2709/2806 12003KT P6SM SCT080
     FM270930 12003KT 3SM BR BKN003
      TEMPO 2711/2714 1/4SM FG BKN001
     FM271430 17006KT P6SM SCT010
     FM280100 14005KT P6SM BKN250=



000
FTUS43 KARX 270850 AAA
TAFLSE
TAF AMD
KLSE 270850Z 2709/2806 12003KT P6SM SCT080
     FM270930 12003KT 3SM BR BKN003
      TEMPO 2711/2714 1/4SM FG BKN001
     FM271430 17006KT P6SM SCT010
     FM280100 14005KT P6SM BKN250=



000
FTUS43 KARX 270850 AAA
TAFLSE
TAF AMD
KLSE 270850Z 2709/2806 12003KT P6SM SCT080
     FM270930 12003KT 3SM BR BKN003
      TEMPO 2711/2714 1/4SM FG BKN001
     FM271430 17006KT P6SM SCT010
     FM280100 14005KT P6SM BKN250=



000
FTUS43 KARX 270520
TAFLSE
TAF
KLSE 270520Z 2706/2806 12003KT P6SM SCT080
     FM270930 12003KT 3SM BR SCT003
      TEMPO 2711/2714 1/4SM FG BKN001
     FM271430 17006KT P6SM SCT010
     FM280100 14005KT P6SM BKN250=



000
FTUS43 KARX 270520
TAFLSE
TAF
KLSE 270520Z 2706/2806 12003KT P6SM SCT080
     FM270930 12003KT 3SM BR SCT003
      TEMPO 2711/2714 1/4SM FG BKN001
     FM271430 17006KT P6SM SCT010
     FM280100 14005KT P6SM BKN250=



000
FTUS43 KARX 270520
TAFRST
TAF
KRST 270520Z 2706/2806 14005KT P6SM BKN070
     FM271600 17009KT P6SM BKN250=



000
FTUS43 KARX 270520
TAFRST
TAF
KRST 270520Z 2706/2806 14005KT P6SM BKN070
     FM271600 17009KT P6SM BKN250=



000
FTUS43 KARX 270520
TAFLSE
TAF
KLSE 270520Z 2706/2806 12003KT P6SM SCT080
     FM270930 12003KT 3SM BR SCT003
      TEMPO 2711/2714 1/4SM FG BKN001
     FM271430 17006KT P6SM SCT010
     FM280100 14005KT P6SM BKN250=



000
FTUS43 KARX 270520
TAFRST
TAF
KRST 270520Z 2706/2806 14005KT P6SM BKN070
     FM271600 17009KT P6SM BKN250=



000
FTUS43 KARX 270520
TAFRST
TAF
KRST 270520Z 2706/2806 14005KT P6SM BKN070
     FM271600 17009KT P6SM BKN250=



000
FTUS43 KARX 262332
TAFLSE
TAF
KLSE 262332Z 2700/2724 VRB03KT P6SM SKC
     FM270930 VRB03KT 3SM BR SCT003
      TEMPO 2711/2714 1/4SM FG OVC001
     FM271430 17006KT P6SM SCT010=



000
FTUS43 KARX 262332
TAFRST
TAF
KRST 262332Z 2700/2724 14005KT P6SM SKC
      TEMPO 2710/2713 4SM BR
     FM271600 17009KT P6SM BKN250=



000
FTUS43 KARX 262332
TAFRST
TAF
KRST 262332Z 2700/2724 14005KT P6SM SKC
      TEMPO 2710/2713 4SM BR
     FM271600 17009KT P6SM BKN250=



000
FTUS43 KARX 262332
TAFLSE
TAF
KLSE 262332Z 2700/2724 VRB03KT P6SM SKC
     FM270930 VRB03KT 3SM BR SCT003
      TEMPO 2711/2714 1/4SM FG OVC001
     FM271430 17006KT P6SM SCT010=



000
FTUS43 KARX 261730
TAFRST
TAF
KRST 261730Z 2618/2718 14005KT P6SM SKC
      TEMPO 2710/2713 4SM BR
     FM271600 17009KT P6SM SCT250=



000
FTUS43 KARX 261730
TAFLSE
TAF
KLSE 261730Z 2618/2718 33005KT P6SM SCT040
     FM270000 VRB03KT P6SM SKC
     FM270900 VRB03KT 1SM BR BKN003
      TEMPO 2710/2714 1/4SM FG OVC002
     FM271500 17006KT P6SM SCT010=



000
FTUS43 KARX 261730
TAFRST
TAF
KRST 261730Z 2618/2718 14005KT P6SM SKC
      TEMPO 2710/2713 4SM BR
     FM271600 17009KT P6SM SCT250=



000
FTUS43 KARX 261730
TAFRST
TAF
KRST 261730Z 2618/2718 14005KT P6SM SKC
      TEMPO 2710/2713 4SM BR
     FM271600 17009KT P6SM SCT250=



000
FTUS43 KARX 261730
TAFLSE
TAF
KLSE 261730Z 2618/2718 33005KT P6SM SCT040
     FM270000 VRB03KT P6SM SKC
     FM270900 VRB03KT 1SM BR BKN003
      TEMPO 2710/2714 1/4SM FG OVC002
     FM271500 17006KT P6SM SCT010=



000
FTUS43 KARX 261730
TAFLSE
TAF
KLSE 261730Z 2618/2718 33005KT P6SM SCT040
     FM270000 VRB03KT P6SM SKC
     FM270900 VRB03KT 1SM BR BKN003
      TEMPO 2710/2714 1/4SM FG OVC002
     FM271500 17006KT P6SM SCT010=



000
FTUS43 KARX 261125
TAFLSE
TAF
KLSE 261125Z 2612/2712 VRB03KT P6SM SCT003
     FM261300 33005KT P6SM SCT040
     FM270200 VRB03KT P6SM SKC
     FM270900 VRB03KT 1SM BR BKN003=



000
FTUS43 KARX 261125
TAFRST
TAF
KRST 261125Z 2612/2712 34005KT P6SM SKC
     FM270300 14004KT P6SM SKC=



000
FTUS43 KARX 261125
TAFRST
TAF
KRST 261125Z 2612/2712 34005KT P6SM SKC
     FM270300 14004KT P6SM SKC=



000
FTUS43 KARX 261125
TAFRST
TAF
KRST 261125Z 2612/2712 34005KT P6SM SKC
     FM270300 14004KT P6SM SKC=



000
FTUS43 KARX 261125
TAFLSE
TAF
KLSE 261125Z 2612/2712 VRB03KT P6SM SCT003
     FM261300 33005KT P6SM SCT040
     FM270200 VRB03KT P6SM SKC
     FM270900 VRB03KT 1SM BR BKN003=



000
FTUS43 KARX 261125
TAFLSE
TAF
KLSE 261125Z 2612/2712 VRB03KT P6SM SCT003
     FM261300 33005KT P6SM SCT040
     FM270200 VRB03KT P6SM SKC
     FM270900 VRB03KT 1SM BR BKN003=



000
FTUS43 KARX 261125
TAFLSE
TAF
KLSE 261125Z 2612/2712 VRB03KT P6SM SCT003
     FM261300 33005KT P6SM SCT040
     FM270200 VRB03KT P6SM SKC
     FM270900 VRB03KT 1SM BR BKN003=



000
FTUS43 KARX 261125
TAFRST
TAF
KRST 261125Z 2612/2712 34005KT P6SM SKC
     FM270300 14004KT P6SM SKC=



000
FTUS43 KARX 260807 AAA
TAFLSE
TAF AMD
KLSE 260807Z 2608/2706 VRB03KT P6SM SKC
      TEMPO 2608/2610 BKN040
     FM261000 VRB03KT P6SM BCFG SCT003
     FM261400 32005KT P6SM SKC
     FM270200 10003KT P6SM SKC=



000
FTUS43 KARX 260807 AAA
TAFLSE
TAF AMD
KLSE 260807Z 2608/2706 VRB03KT P6SM SKC
      TEMPO 2608/2610 BKN040
     FM261000 VRB03KT P6SM BCFG SCT003
     FM261400 32005KT P6SM SKC
     FM270200 10003KT P6SM SKC=



000
FTUS43 KARX 260520
TAFLSE
TAF
KLSE 260520Z 2606/2706 VRB03KT P6SM SKC
     FM261000 VRB03KT P6SM BCFG SCT003
      TEMPO 2612/2614 BKN003
     FM261400 32005KT P6SM SKC
     FM270200 10003KT P6SM SKC=



000
FTUS43 KARX 260520
TAFRST
TAF
KRST 260520Z 2606/2706 33005KT P6SM SKC
     FM270300 11004KT P6SM SKC=



000
FTUS43 KARX 260520
TAFRST
TAF
KRST 260520Z 2606/2706 33005KT P6SM SKC
     FM270300 11004KT P6SM SKC=



000
FTUS43 KARX 260520
TAFLSE
TAF
KLSE 260520Z 2606/2706 VRB03KT P6SM SKC
     FM261000 VRB03KT P6SM BCFG SCT003
      TEMPO 2612/2614 BKN003
     FM261400 32005KT P6SM SKC
     FM270200 10003KT P6SM SKC=



000
FTUS43 KARX 260520
TAFLSE
TAF
KLSE 260520Z 2606/2706 VRB03KT P6SM SKC
     FM261000 VRB03KT P6SM BCFG SCT003
      TEMPO 2612/2614 BKN003
     FM261400 32005KT P6SM SKC
     FM270200 10003KT P6SM SKC=



000
FTUS43 KARX 260520
TAFRST
TAF
KRST 260520Z 2606/2706 33005KT P6SM SKC
     FM270300 11004KT P6SM SKC=



000
FTUS43 KARX 252330
TAFLSE
TAF
KLSE 252330Z 2600/2624 34005KT P6SM SKC
      TEMPO 2600/2601 BKN050
     FM261000 VRB03KT P6SM BCFG SCT003
     FM261400 30005KT P6SM SKC=



000
FTUS43 KARX 252330
TAFLSE
TAF
KLSE 252330Z 2600/2624 34005KT P6SM SKC
      TEMPO 2600/2601 BKN050
     FM261000 VRB03KT P6SM BCFG SCT003
     FM261400 30005KT P6SM SKC=



000
FTUS43 KARX 252330
TAFRST
TAF
KRST 252330Z 2600/2624 32005KT P6SM SKC=



000
FTUS43 KARX 252330
TAFLSE
TAF
KLSE 252330Z 2600/2624 34005KT P6SM SKC
      TEMPO 2600/2601 BKN050
     FM261000 VRB03KT P6SM BCFG SCT003
     FM261400 30005KT P6SM SKC=



000
FTUS43 KARX 252330
TAFRST
TAF
KRST 252330Z 2600/2624 32005KT P6SM SKC=



000
FTUS43 KARX 252330
TAFRST
TAF
KRST 252330Z 2600/2624 32005KT P6SM SKC=



000
FTUS43 KARX 252330
TAFRST
TAF
KRST 252330Z 2600/2624 32005KT P6SM SKC=



000
FTUS43 KARX 252330
TAFLSE
TAF
KLSE 252330Z 2600/2624 34005KT P6SM SKC
      TEMPO 2600/2601 BKN050
     FM261000 VRB03KT P6SM BCFG SCT003
     FM261400 30005KT P6SM SKC=



000
FTUS43 KARX 252041 AAA
TAFLSE
TAF AMD
KLSE 252041Z 2521/2618 32011G18KT P6SM BKN035
     FM252300 34006KT P6SM SKC
     FM261000 VRB03KT P6SM BCFG SCT003
     FM261400 VRB03KT P6SM SKC=



000
FTUS43 KARX 252041 AAA
TAFLSE
TAF AMD
KLSE 252041Z 2521/2618 32011G18KT P6SM BKN035
     FM252300 34006KT P6SM SKC
     FM261000 VRB03KT P6SM BCFG SCT003
     FM261400 VRB03KT P6SM SKC=



000
FTUS43 KARX 252041 AAA
TAFLSE
TAF AMD
KLSE 252041Z 2521/2618 32011G18KT P6SM BKN035
     FM252300 34006KT P6SM SKC
     FM261000 VRB03KT P6SM BCFG SCT003
     FM261400 VRB03KT P6SM SKC=



000
FTUS43 KARX 252041 AAA
TAFLSE
TAF AMD
KLSE 252041Z 2521/2618 32011G18KT P6SM BKN035
     FM252300 34006KT P6SM SKC
     FM261000 VRB03KT P6SM BCFG SCT003
     FM261400 VRB03KT P6SM SKC=



000
FTUS43 KARX 251720
TAFRST
TAF
KRST 251720Z 2518/2618 33012G18KT P6SM SKC
     FM252300 32005KT P6SM SKC=



000
FTUS43 KARX 251720
TAFLSE
TAF
KLSE 251720Z 2518/2618 33008G18KT P6SM BKN028
     FM252000 32011G18KT P6SM SCT030
     FM252300 34006KT P6SM SKC
     FM261000 VRB03KT P6SM BCFG SCT003
     FM261400 VRB03KT P6SM SKC=



000
FTUS43 KARX 251720
TAFRST
TAF
KRST 251720Z 2518/2618 33012G18KT P6SM SKC
     FM252300 32005KT P6SM SKC=



000
FTUS43 KARX 251720
TAFRST
TAF
KRST 251720Z 2518/2618 33012G18KT P6SM SKC
     FM252300 32005KT P6SM SKC=



000
FTUS43 KARX 251720
TAFLSE
TAF
KLSE 251720Z 2518/2618 33008G18KT P6SM BKN028
     FM252000 32011G18KT P6SM SCT030
     FM252300 34006KT P6SM SKC
     FM261000 VRB03KT P6SM BCFG SCT003
     FM261400 VRB03KT P6SM SKC=



000
FTUS43 KARX 251720
TAFLSE
TAF
KLSE 251720Z 2518/2618 33008G18KT P6SM BKN028
     FM252000 32011G18KT P6SM SCT030
     FM252300 34006KT P6SM SKC
     FM261000 VRB03KT P6SM BCFG SCT003
     FM261400 VRB03KT P6SM SKC=



000
FTUS43 KARX 251720
TAFRST
TAF
KRST 251720Z 2518/2618 33012G18KT P6SM SKC
     FM252300 32005KT P6SM SKC=



000
FTUS43 KARX 251613 AAB
TAFLSE
TAF AMD
KLSE 251613Z 2516/2612 33011G18KT P6SM BKN025
     FM251800 32014G20KT P6SM SCT035
     FM252300 36005KT P6SM SKC=



000
FTUS43 KARX 251613 AAB
TAFLSE
TAF AMD
KLSE 251613Z 2516/2612 33011G18KT P6SM BKN025
     FM251800 32014G20KT P6SM SCT035
     FM252300 36005KT P6SM SKC=



000
FTUS43 KARX 251409 AAA
TAFLSE
TAF AMD
KLSE 251409Z 2514/2612 34011G18KT P6SM SCT025
      TEMPO 2514/2516 BKN025
     FM251600 32014G20KT P6SM SCT050
     FM252300 36005KT P6SM SKC=



000
FTUS43 KARX 251409 AAA
TAFLSE
TAF AMD
KLSE 251409Z 2514/2612 34011G18KT P6SM SCT025
      TEMPO 2514/2516 BKN025
     FM251600 32014G20KT P6SM SCT050
     FM252300 36005KT P6SM SKC=



000
FTUS43 KARX 251134
TAFRST
TAF
KRST 251134Z 2512/2612 28008KT P6SM SCT045
     FM251500 33014G22KT P6SM SCT050
     FM251900 33012G18KT P6SM SCT060
     FM252300 32005KT P6SM SKC=



000
FTUS43 KARX 251134
TAFLSE
TAF
KLSE 251134Z 2512/2612 32012KT P6SM SCT030
      TEMPO 2512/2516 BKN030
     FM251600 32014G20KT P6SM SCT050
     FM252300 36005KT P6SM SKC=



000
FTUS43 KARX 251134
TAFLSE
TAF
KLSE 251134Z 2512/2612 32012KT P6SM SCT030
      TEMPO 2512/2516 BKN030
     FM251600 32014G20KT P6SM SCT050
     FM252300 36005KT P6SM SKC=



000
FTUS43 KARX 251134
TAFRST
TAF
KRST 251134Z 2512/2612 28008KT P6SM SCT045
     FM251500 33014G22KT P6SM SCT050
     FM251900 33012G18KT P6SM SCT060
     FM252300 32005KT P6SM SKC=



000
FTUS43 KARX 251134
TAFRST
TAF
KRST 251134Z 2512/2612 28008KT P6SM SCT045
     FM251500 33014G22KT P6SM SCT050
     FM251900 33012G18KT P6SM SCT060
     FM252300 32005KT P6SM SKC=



000
FTUS43 KARX 251134
TAFLSE
TAF
KLSE 251134Z 2512/2612 32012KT P6SM SCT030
      TEMPO 2512/2516 BKN030
     FM251600 32014G20KT P6SM SCT050
     FM252300 36005KT P6SM SKC=



000
FTUS43 KARX 251134
TAFRST
TAF
KRST 251134Z 2512/2612 28008KT P6SM SCT045
     FM251500 33014G22KT P6SM SCT050
     FM251900 33012G18KT P6SM SCT060
     FM252300 32005KT P6SM SKC=



000
FTUS43 KARX 251134
TAFLSE
TAF
KLSE 251134Z 2512/2612 32012KT P6SM SCT030
      TEMPO 2512/2516 BKN030
     FM251600 32014G20KT P6SM SCT050
     FM252300 36005KT P6SM SKC=



000
FTUS43 KARX 250525
TAFLSE
TAF
KLSE 250525Z 2506/2606 30012KT P6SM OVC070
     FM251400 31014G21KT P6SM BKN050
     FM252300 32007KT P6SM SCT050=



000
FTUS43 KARX 250525
TAFRST
TAF
KRST 250525Z 2506/2606 28006KT P6SM BKN050
     FM251500 33014G22KT P6SM BKN060
     FM251900 33012KT P6SM SCT060
     FM252300 30004KT P6SM SKC=



000
FTUS43 KARX 250525
TAFLSE
TAF
KLSE 250525Z 2506/2606 30012KT P6SM OVC070
     FM251400 31014G21KT P6SM BKN050
     FM252300 32007KT P6SM SCT050=



000
FTUS43 KARX 250525
TAFRST
TAF
KRST 250525Z 2506/2606 28006KT P6SM BKN050
     FM251500 33014G22KT P6SM BKN060
     FM251900 33012KT P6SM SCT060
     FM252300 30004KT P6SM SKC=



    US Dept of Commerce
    National Oceanic and Atmospheric Administration
    National Weather Service
    1325 East West Highway
    Silver Spring, MD 20910
    Page Author: NWS Internet Services Team
Disclaimer
Information Quality
Credits
Glossary
Privacy Policy
Freedom of Information Act (FOIA)
About Us
Career Opportunities